Heat Index SAI AWOS Graphical Display Untitled Document
Sidney Municipal Airport , NY ( N23 )
000
03:37
18/02/19
00
N/A
N/A
30.43
N/A
1027
19(F), -7(C)
19(F), -7(C)
19 F
100%
CLR
7
Missing
N/A
N/A
03:37 zulu Wind Calm, Altimeter 30.43
METAR KN23 190337Z AUTO 00000KT 7SM CLR M07/M07 A3043 A02
METAR:
FAA Disclaimer--Advisory Use ONLY, not for flight info-- 6/29/2009: Sidney Airport, operations 607-561-2346, Pilots with cellphones (smartphones) can now view awos at http://www.saiawos3.com/N23
INFO:
Wind Direction:
Wind Speed:
Wind Gust:
Wind Variable:
Altimeter:
Dens Alt:
Elev:
Temp:
Dwpt:
Wind Chill
Rel Humidity:
Ceiling:
Visibility:
Prsnt Wea:
PCPN:
Remarks:
How to read the WebPage